Fire Weather Observation
Issued by NWS Grand Junction, CO

Home | Current Version | Previous Version | Graphics & Text | Print | Product List | Glossary On
Versions: 1 2 3 4 5 6 7 8 9 10 11 12 13 14 15 16 17 18 19 20 21 22 23 24 25 26 27 28 29 30 31 32 33 34 35
000
SHUS65 KGJT 272016
FWOGJT

DAILY FIRE WEATHER OBSERVATION
NATIONAL WEATHER SERVICE GRAND JUNCTION CO
212 PM MDT FRI MAY 27 2016

STATE OF THE WEATHER (W)               6
DRY BULB TEMPERATURE                   68   DEGREES FAHRENHEIT
RELATIVE HUMIDITY (RH)                 28   PERCENT
LIGHTNING ACTIVITY LEVEL
  (LAL - MIDNIGHT TO 2 PM)             2
WIND DIRECTION                         360  DEGREES (C IF CALM)
WIND SPEED                             21   MPH
MAX TEMP (2 PM - 2 PM)                 73   DEGREES FAHRENHEIT
MIN TEMP (2 PM - 2 PM)                 47   DEGREES FAHRENHEIT
MAX RH (2 PM - 2 PM)                   74   PERCENT
MIN RH (2 PM - 2 PM)                   14   PERCENT
PCPN DURATION                          0.9  HOURS
PCPN AMT (2 PM - 2 PM)                 T    INCHES
LAL (2 PM - 2 PM)                      4

$$

METAR KGJT 271953Z 01018G25KT 10SM -RA FEW100 20/01 A2989 RMK
      AO2 LTG DSNT NW RAB45 SLP073 P0000 T02000011



USA.gov is the U.S. government's official web portal to all federal, state and local government web resources and services.